PWSweather.com
Personal Weather Stations
Station Observations
DW6359
Southwest Cambria, Cambria, WI 53923

Southwest CambriaCambria, WI 53923

Lat: 43.541194, Lon: -89.11275

Elevation: 945

Station Type: Davis Vantage Pro2

http://home.centurytel.net/weathercambria/wxcambria.html

High Low Average
Temperature 8.6°F-13.0°C -3.9°F-19.9°C 2.1°F-16.6°C
Dew Point -1.9°F-18.8°C -9.9°F-23.3°C -5.4°F-20.8°C
Winds 14.0 mph 22.5 kmh Calm Calm 4.0 mph WNW6.4 kmh WNW
Wind Gusts 16.0 mph25.7 kmh -- 1.0 mph1.6 kmh
Humidity 83% 57% 70%
Pressure 30.79 in1042.7 mb 30.62 in1036.9 mb -
Precipitation 0.00 in0.0 mm - -
Hour Temp Dew Point Humidity Winds Wind Gusts Pressure Precip Precip Rate Daily Precip Total
12:00 AM 5.3°F-14.8°C -1.4°F-18.6°C 73% 10.0 mph NW16.1 kmh NW 13.0 mph20.9 kmh 30.62 in1036.9 mb 0.00 in0.0 mm 0.00 in0.0 mm 0.00 in0.0 mm
12:05 AM 5.2°F-14.9°C -1.8°F-18.8°C 72% 13.0 mph NW20.9 kmh NW 13.0 mph20.9 kmh 30.62 in1036.9 mb 0.00 in0.0 mm 0.00 in0.0 mm 0.00 in0.0 mm
12:10 AM 5.1°F-14.9°C -1.9°F-18.8°C 72% 10.0 mph NW16.1 kmh NW -- 30.62 in1036.9 mb 0.00 in0.0 mm 0.00 in0.0 mm 0.00 in0.0 mm
12:15 AM 5.0°F-15.0°C -2.0°F-18.9°C 72% 10.0 mph NW16.1 kmh NW -- 30.62 in1036.9 mb 0.00 in0.0 mm 0.00 in0.0 mm 0.00 in0.0 mm
12:20 AM 4.9°F-15.1°C -2.1°F-18.9°C 72% 6.0 mph NW9.7 kmh NW -- 30.62 in1036.9 mb 0.00 in0.0 mm 0.00 in0.0 mm 0.00 in0.0 mm
12:25 AM 4.8°F-15.1°C -2.2°F-19.0°C 72% 5.0 mph NNW8.0 kmh NNW -- 30.62 in1036.9 mb 0.00 in0.0 mm 0.00 in0.0 mm 0.00 in0.0 mm
12:30 AM 4.6°F-15.2°C -2.4°F-19.1°C 72% 5.0 mph WNW8.0 kmh WNW -- 30.63 in1037.3 mb 0.00 in0.0 mm 0.00 in0.0 mm 0.00 in0.0 mm
12:35 AM 4.5°F-15.3°C -2.5°F-19.2°C 72% 7.0 mph NW11.3 kmh NW -- 30.63 in1037.3 mb 0.00 in0.0 mm 0.00 in0.0 mm 0.00 in0.0 mm
12:40 AM 4.4°F-15.3°C -2.6°F-19.2°C 72% 11.0 mph NW17.7 kmh NW -- 30.63 in1037.3 mb 0.00 in0.0 mm 0.00 in0.0 mm 0.00 in0.0 mm
12:45 AM 4.3°F-15.4°C -2.7°F-19.3°C 72% 5.0 mph WNW8.0 kmh WNW -- 30.62 in1036.9 mb 0.00 in0.0 mm 0.00 in0.0 mm 0.00 in0.0 mm
12:50 AM 4.2°F-15.4°C -2.8°F-19.3°C 72% 6.0 mph NW9.7 kmh NW 14.0 mph22.5 kmh 30.62 in1036.9 mb 0.00 in0.0 mm 0.00 in0.0 mm 0.00 in0.0 mm
12:55 AM 4.1°F-15.5°C -2.9°F-19.4°C 72% 4.0 mph NNW6.4 kmh NNW 14.0 mph22.5 kmh 30.62 in1036.9 mb 0.00 in0.0 mm 0.00 in0.0 mm 0.00 in0.0 mm
01:00 AM 4.0°F-15.6°C -2.7°F-19.3°C 73% 8.0 mph NW12.9 kmh NW -- 30.63 in1037.3 mb 0.00 in0.0 mm 0.00 in0.0 mm 0.00 in0.0 mm
01:05 AM 3.8°F-15.7°C -2.9°F-19.4°C 73% 8.0 mph N12.9 kmh N -- 30.62 in1036.9 mb 0.00 in0.0 mm 0.00 in0.0 mm 0.00 in0.0 mm
01:10 AM 3.7°F-15.7°C -3.0°F-19.4°C 73% 6.0 mph NW9.7 kmh NW -- 30.62 in1036.9 mb 0.00 in0.0 mm 0.00 in0.0 mm 0.00 in0.0 mm
01:15 AM 3.6°F-15.8°C -3.1°F-19.5°C 73% 6.0 mph NW9.7 kmh NW -- 30.62 in1036.9 mb 0.00 in0.0 mm 0.00 in0.0 mm 0.00 in0.0 mm
01:20 AM 3.5°F-15.8°C -3.2°F-19.6°C 73% 14.0 mph NW22.5 kmh NW -- 30.63 in1037.3 mb 0.00 in0.0 mm 0.00 in0.0 mm 0.00 in0.0 mm
01:25 AM 3.3°F-15.9°C -3.4°F-19.7°C 73% 11.0 mph NW17.7 kmh NW -- 30.63 in1037.3 mb 0.00 in0.0 mm 0.00 in0.0 mm 0.00 in0.0 mm
01:30 AM 3.2°F-16.0°C -3.5°F-19.7°C 73% 6.0 mph WNW9.7 kmh WNW -- 30.63 in1037.3 mb 0.00 in0.0 mm 0.00 in0.0 mm 0.00 in0.0 mm
01:35 AM 3.1°F-16.1°C -3.6°F-19.8°C 73% 12.0 mph WNW19.3 kmh WNW -- 30.64 in1037.6 mb 0.00 in0.0 mm 0.00 in0.0 mm 0.00 in0.0 mm
01:40 AM 3.0°F-16.1°C -3.4°F-19.7°C 74% 8.0 mph WNW12.9 kmh WNW 13.0 mph20.9 kmh 30.64 in1037.6 mb 0.00 in0.0 mm 0.00 in0.0 mm 0.00 in0.0 mm
01:45 AM 2.9°F-16.2°C -3.8°F-19.9°C 73% 6.0 mph NW9.7 kmh NW 13.0 mph20.9 kmh 30.64 in1037.6 mb 0.00 in0.0 mm 0.00 in0.0 mm 0.00 in0.0 mm
01:50 AM 2.8°F-16.2°C -3.6°F-19.8°C 74% 10.0 mph NW16.1 kmh NW -- 30.64 in1037.6 mb 0.00 in0.0 mm 0.00 in0.0 mm 0.00 in0.0 mm
01:55 AM 2.7°F-16.3°C -4.0°F-20.0°C 73% 3.0 mph NW4.8 kmh NW -- 30.64 in1037.6 mb 0.00 in0.0 mm 0.00 in0.0 mm 0.00 in0.0 mm
02:00 AM 2.6°F-16.3°C -4.0°F-20.0°C 73% 11.0 mph NW17.7 kmh NW -- 30.64 in1037.6 mb 0.00 in0.0 mm 0.00 in0.0 mm 0.00 in0.0 mm
02:05 AM 2.5°F-16.4°C -4.1°F-20.1°C 73% 8.0 mph NW12.9 kmh NW -- 30.64 in1037.6 mb 0.00 in0.0 mm 0.00 in0.0 mm 0.00 in0.0 mm
02:10 AM 2.4°F-16.4°C -4.0°F-20.0°C 74% 5.0 mph NW8.0 kmh NW -- 30.65 in1037.9 mb 0.00 in0.0 mm 0.00 in0.0 mm 0.00 in0.0 mm
02:15 AM 2.3°F-16.5°C -4.1°F-20.1°C 74% 5.0 mph NW8.0 kmh NW -- 30.65 in1037.9 mb 0.00 in0.0 mm 0.00 in0.0 mm 0.00 in0.0 mm
02:20 AM 2.3°F-16.5°C -4.1°F-20.1°C 74% 5.0 mph NW8.0 kmh NW -- 30.65 in1037.9 mb 0.00 in0.0 mm 0.00 in0.0 mm 0.00 in0.0 mm
02:25 AM 2.2°F-16.6°C -4.2°F-20.1°C 74% 8.0 mph NW12.9 kmh NW -- 30.66 in1038.3 mb 0.00 in0.0 mm 0.00 in0.0 mm 0.00 in0.0 mm
02:30 AM 2.1°F-16.6°C -4.5°F-20.3°C 73% 6.0 mph NW9.7 kmh NW 16.0 mph25.7 kmh 30.65 in1037.9 mb 0.00 in0.0 mm 0.00 in0.0 mm 0.00 in0.0 mm
02:35 AM 2.0°F-16.7°C -4.6°F-20.3°C 73% 4.0 mph NW6.4 kmh NW 16.0 mph25.7 kmh 30.66 in1038.3 mb 0.00 in0.0 mm 0.00 in0.0 mm 0.00 in0.0 mm
02:40 AM 1.9°F-16.7°C -4.7°F-20.4°C 73% 5.0 mph WNW8.0 kmh WNW -- 30.66 in1038.3 mb 0.00 in0.0 mm 0.00 in0.0 mm 0.00 in0.0 mm
02:45 AM 1.8°F-16.8°C -4.5°F-20.3°C 74% 6.0 mph WNW9.7 kmh WNW -- 30.66 in1038.3 mb 0.00 in0.0 mm 0.00 in0.0 mm 0.00 in0.0 mm
02:50 AM 1.7°F-16.8°C -4.6°F-20.3°C 74% 5.0 mph NW8.0 kmh NW -- 30.66 in1038.3 mb 0.00 in0.0 mm 0.00 in0.0 mm 0.00 in0.0 mm
02:55 AM 1.5°F-16.9°C -4.8°F-20.4°C 74% 6.0 mph WNW9.7 kmh WNW -- 30.66 in1038.3 mb 0.00 in0.0 mm 0.00 in0.0 mm 0.00 in0.0 mm
03:00 AM 1.5°F-16.9°C -4.8°F-20.4°C 74% 8.0 mph WNW12.9 kmh WNW -- 30.66 in1038.3 mb 0.00 in0.0 mm 0.00 in0.0 mm 0.00 in0.0 mm
03:05 AM 1.4°F-17.0°C -5.2°F-20.7°C 73% 7.0 mph NW11.3 kmh NW -- 30.67 in1038.6 mb 0.00 in0.0 mm 0.00 in0.0 mm 0.00 in0.0 mm
03:10 AM 1.3°F-17.1°C -5.3°F-20.7°C 73% 6.0 mph W9.7 kmh W -- 30.67 in1038.6 mb 0.00 in0.0 mm 0.00 in0.0 mm 0.00 in0.0 mm
03:15 AM 1.2°F-17.1°C -5.4°F-20.8°C 73% 5.0 mph NW8.0 kmh NW -- 30.67 in1038.6 mb 0.00 in0.0 mm 0.00 in0.0 mm 0.00 in0.0 mm
03:20 AM 1.1°F-17.2°C -5.5°F-20.8°C 73% 4.0 mph WNW6.4 kmh WNW 12.0 mph19.3 kmh 30.67 in1038.6 mb 0.00 in0.0 mm 0.00 in0.0 mm 0.00 in0.0 mm
03:25 AM 1.0°F-17.2°C -5.6°F-20.9°C 73% 8.0 mph WNW12.9 kmh WNW 12.0 mph19.3 kmh 30.68 in1038.9 mb 0.00 in0.0 mm 0.00 in0.0 mm 0.00 in0.0 mm
03:30 AM 1.0°F-17.2°C -5.6°F-20.9°C 73% 4.0 mph NW6.4 kmh NW -- 30.68 in1038.9 mb 0.00 in0.0 mm 0.00 in0.0 mm 0.00 in0.0 mm
03:35 AM 0.9°F-17.3°C -5.7°F-20.9°C 73% 8.0 mph WNW12.9 kmh WNW -- 30.68 in1038.9 mb 0.00 in0.0 mm 0.00 in0.0 mm 0.00 in0.0 mm
03:40 AM 0.8°F-17.3°C -5.8°F-21.0°C 73% 7.0 mph NW11.3 kmh NW -- 30.68 in1038.9 mb 0.00 in0.0 mm 0.00 in0.0 mm 0.00 in0.0 mm
03:45 AM 0.6°F-17.4°C -6.0°F-21.1°C 73% 6.0 mph WNW9.7 kmh WNW -- 30.68 in1038.9 mb 0.00 in0.0 mm 0.00 in0.0 mm 0.00 in0.0 mm
03:50 AM 0.6°F-17.4°C -6.0°F-21.1°C 73% 3.0 mph WNW4.8 kmh WNW -- 30.68 in1038.9 mb 0.00 in0.0 mm 0.00 in0.0 mm 0.00 in0.0 mm
03:55 AM 0.5°F-17.5°C -6.1°F-21.2°C 73% 5.0 mph WNW8.0 kmh WNW -- 30.69 in1039.3 mb 0.00 in0.0 mm 0.00 in0.0 mm 0.00 in0.0 mm
04:00 AM 0.4°F-17.6°C -6.2°F-21.2°C 73% 5.0 mph WNW8.0 kmh WNW -- 30.68 in1038.9 mb 0.00 in0.0 mm 0.00 in0.0 mm 0.00 in0.0 mm
04:05 AM 0.4°F-17.6°C -6.2°F-21.2°C 73% 7.0 mph W11.3 kmh W -- 30.69 in1039.3 mb 0.00 in0.0 mm 0.00 in0.0 mm 0.00 in0.0 mm
04:10 AM 0.2°F-17.7°C -6.4°F-21.3°C 73% 7.0 mph NW11.3 kmh NW 8.0 mph12.9 kmh 30.69 in1039.3 mb 0.00 in0.0 mm 0.00 in0.0 mm 0.00 in0.0 mm
04:15 AM 0.1°F-17.7°C -6.5°F-21.4°C 73% 5.0 mph WNW8.0 kmh WNW 8.0 mph12.9 kmh 30.69 in1039.3 mb 0.00 in0.0 mm 0.00 in0.0 mm 0.00 in0.0 mm
04:20 AM 0.1°F-17.7°C -6.5°F-21.4°C 73% 3.0 mph NW4.8 kmh NW -- 30.69 in1039.3 mb 0.00 in0.0 mm 0.00 in0.0 mm 0.00 in0.0 mm
04:25 AM 0.0°F-17.8°C -6.8°F-21.6°C 72% 5.0 mph WNW8.0 kmh WNW -- 30.69 in1039.3 mb 0.00 in0.0 mm 0.00 in0.0 mm 0.00 in0.0 mm
04:30 AM -0.1°F-17.8°C -6.9°F-21.6°C 72% 6.0 mph NW9.7 kmh NW -- 30.69 in1039.3 mb 0.00 in0.0 mm 0.00 in0.0 mm 0.00 in0.0 mm
04:35 AM -0.2°F-17.9°C -7.0°F-21.7°C 72% 3.0 mph W4.8 kmh W -- 30.69 in1039.3 mb 0.00 in0.0 mm 0.00 in0.0 mm 0.00 in0.0 mm
04:40 AM -0.3°F-17.9°C -7.1°F-21.7°C 72% 4.0 mph WNW6.4 kmh WNW -- 30.70 in1039.6 mb 0.00 in0.0 mm 0.00 in0.0 mm 0.00 in0.0 mm
04:45 AM -0.4°F-18.0°C -7.2°F-21.8°C 72% 3.0 mph WNW4.8 kmh WNW -- 30.70 in1039.6 mb 0.00 in0.0 mm 0.00 in0.0 mm 0.00 in0.0 mm
04:50 AM -0.4°F-18.0°C -7.2°F-21.8°C 72% 4.0 mph WNW6.4 kmh WNW -- 30.70 in1039.6 mb 0.00 in0.0 mm 0.00 in0.0 mm 0.00 in0.0 mm
04:55 AM -0.5°F-18.1°C -7.3°F-21.8°C 72% 2.0 mph W3.2 kmh W -- 30.70 in1039.6 mb 0.00 in0.0 mm 0.00 in0.0 mm 0.00 in0.0 mm
05:00 AM -0.5°F-18.1°C -7.3°F-21.8°C 72% 4.0 mph WNW6.4 kmh WNW 9.0 mph14.5 kmh 30.70 in1039.6 mb 0.00 in0.0 mm 0.00 in0.0 mm 0.00 in0.0 mm
05:05 AM -0.7°F-18.2°C -7.5°F-21.9°C 72% 4.0 mph WNW6.4 kmh WNW 9.0 mph14.5 kmh 30.70 in1039.6 mb 0.00 in0.0 mm 0.00 in0.0 mm 0.00 in0.0 mm
05:10 AM -0.7°F-18.2°C -7.5°F-21.9°C 72% 2.0 mph W3.2 kmh W -- 30.70 in1039.6 mb 0.00 in0.0 mm 0.00 in0.0 mm 0.00 in0.0 mm
05:15 AM -0.8°F-18.2°C -7.6°F-22.0°C 72% 5.0 mph NW8.0 kmh NW -- 30.70 in1039.6 mb 0.00 in0.0 mm 0.00 in0.0 mm 0.00 in0.0 mm
05:20 AM -0.9°F-18.3°C -7.7°F-22.1°C 72% 2.0 mph WNW3.2 kmh WNW -- 30.70 in1039.6 mb 0.00 in0.0 mm 0.00 in0.0 mm 0.00 in0.0 mm
05:25 AM -1.0°F-18.3°C -7.8°F-22.1°C 72% 6.0 mph NW9.7 kmh NW -- 30.70 in1039.6 mb 0.00 in0.0 mm 0.00 in0.0 mm 0.00 in0.0 mm
05:30 AM -1.0°F-18.3°C -7.8°F-22.1°C 72% 6.0 mph WNW9.7 kmh WNW -- 30.70 in1039.6 mb 0.00 in0.0 mm 0.00 in0.0 mm 0.00 in0.0 mm
05:35 AM -1.1°F-18.4°C -7.9°F-22.2°C 72% 5.0 mph W8.0 kmh W -- 30.70 in1039.6 mb 0.00 in0.0 mm 0.00 in0.0 mm 0.00 in0.0 mm
05:40 AM -1.1°F-18.4°C -7.9°F-22.2°C 72% 4.0 mph NW6.4 kmh NW -- 30.70 in1039.6 mb 0.00 in0.0 mm 0.00 in0.0 mm 0.00 in0.0 mm
05:45 AM -1.2°F-18.4°C -8.0°F-22.2°C 72% 4.0 mph NW6.4 kmh NW -- 30.70 in1039.6 mb 0.00 in0.0 mm 0.00 in0.0 mm 0.00 in0.0 mm
05:50 AM -1.3°F-18.5°C -8.1°F-22.3°C 72% 4.0 mph NW6.4 kmh NW 10.0 mph16.1 kmh 30.70 in1039.6 mb 0.00 in0.0 mm 0.00 in0.0 mm 0.00 in0.0 mm
05:55 AM -1.3°F-18.5°C -8.1°F-22.3°C 72% 7.0 mph WNW11.3 kmh WNW 10.0 mph16.1 kmh 30.70 in1039.6 mb 0.00 in0.0 mm 0.00 in0.0 mm 0.00 in0.0 mm
06:00 AM -1.4°F-18.6°C -8.2°F-22.3°C 72% 4.0 mph NW6.4 kmh NW -- 30.70 in1039.6 mb 0.00 in0.0 mm 0.00 in0.0 mm 0.00 in0.0 mm
06:05 AM -1.5°F-18.6°C -8.3°F-22.4°C 72% 5.0 mph W8.0 kmh W -- 30.71 in1040.0 mb 0.00 in0.0 mm 0.00 in0.0 mm 0.00 in0.0 mm
06:10 AM -1.7°F-18.7°C -8.5°F-22.5°C 72% 2.0 mph NW3.2 kmh NW -- 30.70 in1039.6 mb 0.00 in0.0 mm 0.00 in0.0 mm 0.00 in0.0 mm
06:15 AM -1.7°F-18.7°C -8.5°F-22.5°C 72% 3.0 mph NW4.8 kmh NW -- 30.71 in1040.0 mb 0.00 in0.0 mm 0.00 in0.0 mm 0.00 in0.0 mm
06:20 AM -1.9°F-18.8°C -8.7°F-22.6°C 72% 4.0 mph NW6.4 kmh NW -- 30.71 in1040.0 mb 0.00 in0.0 mm 0.00 in0.0 mm 0.00 in0.0 mm
06:25 AM -2.0°F-18.9°C -8.8°F-22.7°C 72% 4.0 mph WNW6.4 kmh WNW -- 30.71 in1040.0 mb 0.00 in0.0 mm 0.00 in0.0 mm 0.00 in0.0 mm
06:30 AM -2.1°F-18.9°C -8.6°F-22.6°C 73% 5.0 mph WNW8.0 kmh WNW -- 30.71 in1040.0 mb 0.00 in0.0 mm 0.00 in0.0 mm 0.00 in0.0 mm
06:35 AM -2.2°F-19.0°C -8.7°F-22.6°C 73% 4.0 mph W6.4 kmh W -- 30.71 in1040.0 mb 0.00 in0.0 mm 0.00 in0.0 mm 0.00 in0.0 mm
06:40 AM -2.3°F-19.1°C -8.8°F-22.7°C 73% 4.0 mph W6.4 kmh W 10.0 mph16.1 kmh 30.71 in1040.0 mb 0.00 in0.0 mm 0.00 in0.0 mm 0.00 in0.0 mm
06:45 AM -2.4°F-19.1°C -8.9°F-22.7°C 73% 3.0 mph WNW4.8 kmh WNW 10.0 mph16.1 kmh 30.71 in1040.0 mb 0.00 in0.0 mm 0.00 in0.0 mm 0.00 in0.0 mm
06:50 AM -2.5°F-19.2°C -9.0°F-22.8°C 73% 6.0 mph WSW9.7 kmh WSW -- 30.72 in1040.3 mb 0.00 in0.0 mm 0.00 in0.0 mm 0.00 in0.0 mm
06:55 AM -2.5°F-19.2°C -9.0°F-22.8°C 73% 5.0 mph WNW8.0 kmh WNW -- 30.72 in1040.3 mb 0.00 in0.0 mm 0.00 in0.0 mm 0.00 in0.0 mm
07:00 AM -2.6°F-19.2°C -9.1°F-22.8°C 73% 5.0 mph NW8.0 kmh NW -- 30.72 in1040.3 mb 0.00 in0.0 mm 0.00 in0.0 mm 0.00 in0.0 mm
07:05 AM -2.6°F-19.2°C -9.1°F-22.8°C 73% 4.0 mph NW6.4 kmh NW -- 30.72 in1040.3 mb 0.00 in0.0 mm 0.00 in0.0 mm 0.00 in0.0 mm
07:10 AM -2.7°F-19.3°C -9.2°F-22.9°C 73% 5.0 mph W8.0 kmh W -- 30.73 in1040.6 mb 0.00 in0.0 mm 0.00 in0.0 mm 0.00 in0.0 mm
07:15 AM -2.7°F-19.3°C -9.2°F-22.9°C 73% 4.0 mph NW6.4 kmh NW -- 30.72 in1040.3 mb 0.00 in0.0 mm 0.00 in0.0 mm 0.00 in0.0 mm
07:20 AM -2.8°F-19.3°C -9.3°F-22.9°C 73% 6.0 mph W9.7 kmh W -- 30.73 in1040.6 mb 0.00 in0.0 mm 0.00 in0.0 mm 0.00 in0.0 mm
07:25 AM -2.9°F-19.4°C -9.4°F-23.0°C 73% 5.0 mph W8.0 kmh W -- 30.73 in1040.6 mb 0.00 in0.0 mm 0.00 in0.0 mm 0.00 in0.0 mm
07:30 AM -3.0°F-19.4°C -9.5°F-23.1°C 73% 5.0 mph W8.0 kmh W 9.0 mph14.5 kmh 30.73 in1040.6 mb 0.00 in0.0 mm 0.00 in0.0 mm 0.00 in0.0 mm
07:35 AM -3.0°F-19.4°C -9.5°F-23.1°C 73% 7.0 mph WNW11.3 kmh WNW 9.0 mph14.5 kmh 30.73 in1040.6 mb 0.00 in0.0 mm 0.00 in0.0 mm 0.00 in0.0 mm
07:40 AM -3.1°F-19.5°C -9.6°F-23.1°C 73% 7.0 mph NW11.3 kmh NW -- 30.73 in1040.6 mb 0.00 in0.0 mm 0.00 in0.0 mm 0.00 in0.0 mm
07:45 AM -3.1°F-19.5°C -9.6°F-23.1°C 73% 6.0 mph WNW9.7 kmh WNW -- 30.73 in1040.6 mb 0.00 in0.0 mm 0.00 in0.0 mm 0.00 in0.0 mm
07:50 AM -3.1°F-19.5°C -9.3°F-22.9°C 74% 1.0 mph W1.6 kmh W -- 30.74 in1041.0 mb 0.00 in0.0 mm 0.00 in0.0 mm 0.00 in0.0 mm
07:55 AM -3.2°F-19.6°C -9.4°F-23.0°C 74% 7.0 mph W11.3 kmh W -- 30.74 in1041.0 mb 0.00 in0.0 mm 0.00 in0.0 mm 0.00 in0.0 mm
08:00 AM -3.2°F-19.6°C -9.4°F-23.0°C 74% 4.0 mph WNW6.4 kmh WNW -- 30.74 in1041.0 mb 0.00 in0.0 mm 0.00 in0.0 mm 0.00 in0.0 mm
08:05 AM -3.4°F-19.7°C -9.6°F-23.1°C 74% 7.0 mph W11.3 kmh W -- 30.74 in1041.0 mb 0.00 in0.0 mm 0.00 in0.0 mm 0.00 in0.0 mm
08:10 AM -3.5°F-19.7°C -9.7°F-23.2°C 74% 4.0 mph W6.4 kmh W -- 30.74 in1041.0 mb 0.00 in0.0 mm 0.00 in0.0 mm 0.00 in0.0 mm
08:15 AM -3.6°F-19.8°C -9.8°F-23.2°C 74% 4.0 mph W6.4 kmh W -- 30.74 in1041.0 mb 0.00 in0.0 mm 0.00 in0.0 mm 0.00 in0.0 mm
08:20 AM -3.7°F-19.8°C -9.9°F-23.3°C 74% 6.0 mph WNW9.7 kmh WNW 8.0 mph12.9 kmh 30.74 in1041.0 mb 0.00 in0.0 mm 0.00 in0.0 mm 0.00 in0.0 mm
08:25 AM -3.7°F-19.8°C -9.9°F-23.3°C 74% 7.0 mph W11.3 kmh W 8.0 mph12.9 kmh 30.74 in1041.0 mb 0.00 in0.0 mm 0.00 in0.0 mm 0.00 in0.0 mm
08:30 AM -3.7°F-19.8°C -9.6°F-23.1°C 75% 5.0 mph W8.0 kmh W -- 30.74 in1041.0 mb 0.00 in0.0 mm 0.00 in0.0 mm 0.00 in0.0 mm
08:35 AM -3.8°F-19.9°C -9.7°F-23.2°C 75% 5.0 mph W8.0 kmh W -- 30.74 in1041.0 mb 0.00 in0.0 mm 0.00 in0.0 mm 0.00 in0.0 mm
08:40 AM -3.9°F-19.9°C -9.8°F-23.2°C 75% 6.0 mph W9.7 kmh W -- 30.74 in1041.0 mb 0.00 in0.0 mm 0.00 in0.0 mm 0.00 in0.0 mm
08:45 AM -3.9°F-19.9°C -9.8°F-23.2°C 75% 5.0 mph WNW8.0 kmh WNW -- 30.74 in1041.0 mb 0.00 in0.0 mm 0.00 in0.0 mm 0.00 in0.0 mm
08:50 AM -3.9°F-19.9°C -9.8°F-23.2°C 75% 6.0 mph WNW9.7 kmh WNW -- 30.74 in1041.0 mb 0.00 in0.0 mm 0.00 in0.0 mm 0.00 in0.0 mm
08:55 AM -3.9°F-19.9°C -9.8°F-23.2°C 75% 1.0 mph WNW1.6 kmh WNW -- 30.75 in1041.3 mb 0.00 in0.0 mm 0.00 in0.0 mm 0.00 in0.0 mm
09:00 AM -3.9°F-19.9°C -9.8°F-23.2°C 75% 7.0 mph W11.3 kmh W -- 30.75 in1041.3 mb 0.00 in0.0 mm 0.00 in0.0 mm 0.00 in0.0 mm
09:05 AM -3.8°F-19.9°C -9.7°F-23.2°C 75% 3.0 mph NW4.8 kmh NW -- 30.75 in1041.3 mb 0.00 in0.0 mm 0.00 in0.0 mm 0.00 in0.0 mm
09:10 AM -3.7°F-19.8°C -9.6°F-23.1°C 75% 3.0 mph WNW4.8 kmh WNW 8.0 mph12.9 kmh 30.75 in1041.3 mb 0.00 in0.0 mm 0.00 in0.0 mm 0.00 in0.0 mm
09:15 AM -3.6°F-19.8°C -9.5°F-23.1°C 75% 4.0 mph WSW6.4 kmh WSW 8.0 mph12.9 kmh 30.75 in1041.3 mb 0.00 in0.0 mm 0.00 in0.0 mm 0.00 in0.0 mm
09:20 AM -3.5°F-19.7°C -9.4°F-23.0°C 75% 9.0 mph WNW14.5 kmh WNW -- 30.75 in1041.3 mb 0.00 in0.0 mm 0.00 in0.0 mm 0.00 in0.0 mm
09:25 AM -3.5°F-19.7°C -9.4°F-23.0°C 75% 9.0 mph W14.5 kmh W -- 30.76 in1041.7 mb 0.00 in0.0 mm 0.00 in0.0 mm 0.00 in0.0 mm
09:30 AM -3.3°F-19.6°C -9.2°F-22.9°C 75% 8.0 mph W12.9 kmh W -- 30.76 in1041.7 mb 0.00 in0.0 mm 0.00 in0.0 mm 0.00 in0.0 mm
09:35 AM -3.2°F-19.6°C -9.4°F-23.0°C 74% 7.0 mph W11.3 kmh W -- 30.76 in1041.7 mb 0.00 in0.0 mm 0.00 in0.0 mm 0.00 in0.0 mm
09:40 AM -3.1°F-19.5°C -9.3°F-22.9°C 74% 6.0 mph W9.7 kmh W -- 30.76 in1041.7 mb 0.00 in0.0 mm 0.00 in0.0 mm 0.00 in0.0 mm
09:45 AM -2.8°F-19.3°C -8.7°F-22.6°C 75% 7.0 mph NW11.3 kmh NW -- 30.76 in1041.7 mb 0.00 in0.0 mm 0.00 in0.0 mm 0.00 in0.0 mm
09:50 AM -2.9°F-19.4°C -9.1°F-22.8°C 74% 6.0 mph W9.7 kmh W -- 30.76 in1041.7 mb 0.00 in0.0 mm 0.00 in0.0 mm 0.00 in0.0 mm
09:55 AM -2.9°F-19.4°C -9.1°F-22.8°C 74% 4.0 mph W6.4 kmh W -- 30.76 in1041.7 mb 0.00 in0.0 mm 0.00 in0.0 mm 0.00 in0.0 mm
10:00 AM -2.7°F-19.3°C -8.9°F-22.7°C 74% 6.0 mph WNW9.7 kmh WNW 11.0 mph17.7 kmh 30.76 in1041.7 mb 0.00 in0.0 mm 0.00 in0.0 mm 0.00 in0.0 mm
10:05 AM -2.4°F-19.1°C -8.6°F-22.6°C 74% 8.0 mph W12.9 kmh W 11.0 mph17.7 kmh 30.76 in1041.7 mb 0.00 in0.0 mm 0.00 in0.0 mm 0.00 in0.0 mm
10:10 AM -2.2°F-19.0°C -8.4°F-22.4°C 74% 8.0 mph W12.9 kmh W -- 30.76 in1041.7 mb 0.00 in0.0 mm 0.00 in0.0 mm 0.00 in0.0 mm
10:15 AM -2.1°F-18.9°C -8.3°F-22.4°C 74% 4.0 mph NW6.4 kmh NW -- 30.77 in1042.0 mb 0.00 in0.0 mm 0.00 in0.0 mm 0.00 in0.0 mm
10:20 AM -2.0°F-18.9°C -8.5°F-22.5°C 73% 4.0 mph WNW6.4 kmh WNW -- 30.77 in1042.0 mb 0.00 in0.0 mm 0.00 in0.0 mm 0.00 in0.0 mm
10:25 AM -1.8°F-18.8°C -8.0°F-22.2°C 74% 7.0 mph NW11.3 kmh NW -- 30.77 in1042.0 mb 0.00 in0.0 mm 0.00 in0.0 mm 0.00 in0.0 mm
10:30 AM -1.5°F-18.6°C -7.7°F-22.1°C 74% 8.0 mph WNW12.9 kmh WNW -- 30.78 in1042.3 mb 0.00 in0.0 mm 0.00 in0.0 mm 0.00 in0.0 mm
10:35 AM -1.2°F-18.4°C -7.4°F-21.9°C 74% 3.0 mph NNW4.8 kmh NNW -- 30.78 in1042.3 mb 0.00 in0.0 mm 0.00 in0.0 mm 0.00 in0.0 mm
10:40 AM -1.0°F-18.3°C -7.5°F-21.9°C 73% 5.0 mph NW8.0 kmh NW -- 30.78 in1042.3 mb 0.00 in0.0 mm 0.00 in0.0 mm 0.00 in0.0 mm
10:45 AM -1.0°F-18.3°C -7.5°F-21.9°C 73% 7.0 mph NW11.3 kmh NW -- 30.78 in1042.3 mb 0.00 in0.0 mm 0.00 in0.0 mm 0.00 in0.0 mm
10:50 AM -0.7°F-18.2°C -7.2°F-21.8°C 73% 3.0 mph WNW4.8 kmh WNW 10.0 mph16.1 kmh 30.78 in1042.3 mb 0.00 in0.0 mm 0.00 in0.0 mm 0.00 in0.0 mm
10:55 AM -0.2°F-17.9°C -6.8°F-21.6°C 73% 3.0 mph NW4.8 kmh NW 10.0 mph16.1 kmh 30.78 in1042.3 mb 0.00 in0.0 mm 0.00 in0.0 mm 0.00 in0.0 mm
11:00 AM 0.0°F-17.8°C -6.6°F-21.4°C 73% 5.0 mph N8.0 kmh N -- 30.78 in1042.3 mb 0.00 in0.0 mm 0.00 in0.0 mm 0.00 in0.0 mm
11:05 AM 0.2°F-17.7°C -6.4°F-21.3°C 73% 5.0 mph WNW8.0 kmh WNW -- 30.78 in1042.3 mb 0.00 in0.0 mm 0.00 in0.0 mm 0.00 in0.0 mm
11:10 AM 0.4°F-17.6°C -6.5°F-21.4°C 72% 5.0 mph NNW8.0 kmh NNW -- 30.79 in1042.7 mb 0.00 in0.0 mm 0.00 in0.0 mm 0.00 in0.0 mm
11:15 AM 0.5°F-17.5°C -6.4°F-21.3°C 72% 7.0 mph W11.3 kmh W -- 30.79 in1042.7 mb 0.00 in0.0 mm 0.00 in0.0 mm 0.00 in0.0 mm
11:20 AM 0.5°F-17.5°C -6.4°F-21.3°C 72% 7.0 mph W11.3 kmh W -- 30.79 in1042.7 mb 0.00 in0.0 mm 0.00 in0.0 mm 0.00 in0.0 mm
11:25 AM 0.9°F-17.3°C -6.0°F-21.1°C 72% 4.0 mph W6.4 kmh W -- 30.79 in1042.7 mb 0.00 in0.0 mm 0.00 in0.0 mm 0.00 in0.0 mm
11:30 AM 1.2°F-17.1°C -5.7°F-20.9°C 72% 6.0 mph W9.7 kmh W -- 30.78 in1042.3 mb 0.00 in0.0 mm 0.00 in0.0 mm 0.00 in0.0 mm
11:35 AM 1.1°F-17.2°C -6.1°F-21.2°C 71% 4.0 mph WNW6.4 kmh WNW -- 30.79 in1042.7 mb 0.00 in0.0 mm 0.00 in0.0 mm 0.00 in0.0 mm
11:40 AM 1.6°F-16.9°C -5.3°F-20.7°C 72% 4.0 mph WNW6.4 kmh WNW 9.0 mph14.5 kmh 30.78 in1042.3 mb 0.00 in0.0 mm 0.00 in0.0 mm 0.00 in0.0 mm
11:45 AM 1.9°F-16.7°C -5.3°F-20.7°C 71% 3.0 mph NNW4.8 kmh NNW 9.0 mph14.5 kmh 30.78 in1042.3 mb 0.00 in0.0 mm 0.00 in0.0 mm 0.00 in0.0 mm
11:50 AM 2.0°F-16.7°C -5.2°F-20.7°C 71% 4.0 mph NW6.4 kmh NW -- 30.78 in1042.3 mb 0.00 in0.0 mm 0.00 in0.0 mm 0.00 in0.0 mm
11:55 AM 2.3°F-16.5°C -4.9°F-20.5°C 71% 2.0 mph W3.2 kmh W -- 30.77 in1042.0 mb 0.00 in0.0 mm 0.00 in0.0 mm 0.00 in0.0 mm
12:00 PM 2.7°F-16.3°C -4.5°F-20.3°C 71% 3.0 mph NW4.8 kmh NW -- 30.77 in1042.0 mb 0.00 in0.0 mm 0.00 in0.0 mm 0.00 in0.0 mm
12:05 PM 3.1°F-16.1°C -4.1°F-20.1°C 71% 8.0 mph NW12.9 kmh NW -- 30.77 in1042.0 mb 0.00 in0.0 mm 0.00 in0.0 mm 0.00 in0.0 mm
12:10 PM 3.2°F-16.0°C -4.6°F-20.3°C 69% 5.0 mph NW8.0 kmh NW -- 30.77 in1042.0 mb 0.00 in0.0 mm 0.00 in0.0 mm 0.00 in0.0 mm
12:15 PM 3.3°F-15.9°C -4.5°F-20.3°C 69% 4.0 mph NNW6.4 kmh NNW -- 30.77 in1042.0 mb 0.00 in0.0 mm 0.00 in0.0 mm 0.00 in0.0 mm
12:20 PM 3.5°F-15.8°C -4.4°F-20.2°C 69% 8.0 mph W12.9 kmh W -- 30.77 in1042.0 mb 0.00 in0.0 mm 0.00 in0.0 mm 0.00 in0.0 mm
12:25 PM 3.6°F-15.8°C -4.3°F-20.2°C 69% 6.0 mph W9.7 kmh W -- 30.77 in1042.0 mb 0.00 in0.0 mm 0.00 in0.0 mm 0.00 in0.0 mm
12:30 PM 3.8°F-15.7°C -4.1°F-20.1°C 69% 5.0 mph WNW8.0 kmh WNW 11.0 mph17.7 kmh 30.77 in1042.0 mb 0.00 in0.0 mm 0.00 in0.0 mm 0.00 in0.0 mm
12:35 PM 4.5°F-15.3°C -3.4°F-19.7°C 69% 6.0 mph WNW9.7 kmh WNW 11.0 mph17.7 kmh 30.77 in1042.0 mb 0.00 in0.0 mm 0.00 in0.0 mm 0.00 in0.0 mm
12:40 PM 4.5°F-15.3°C -3.7°F-19.8°C 68% 6.0 mph W9.7 kmh W -- 30.77 in1042.0 mb 0.00 in0.0 mm 0.00 in0.0 mm 0.00 in0.0 mm
12:45 PM 4.6°F-15.2°C -3.6°F-19.8°C 68% 8.0 mph WNW12.9 kmh WNW -- 30.77 in1042.0 mb 0.00 in0.0 mm 0.00 in0.0 mm 0.00 in0.0 mm
12:50 PM 4.6°F-15.2°C -3.9°F-19.9°C 67% 5.0 mph NW8.0 kmh NW -- 30.77 in1042.0 mb 0.00 in0.0 mm 0.00 in0.0 mm 0.00 in0.0 mm
12:55 PM 4.6°F-15.2°C -3.9°F-19.9°C 67% 6.0 mph W9.7 kmh W -- 30.76 in1041.7 mb 0.00 in0.0 mm 0.00 in0.0 mm 0.00 in0.0 mm
01:00 PM 4.6°F-15.2°C -3.9°F-19.9°C 67% 4.0 mph WNW6.4 kmh WNW -- 30.76 in1041.7 mb 0.00 in0.0 mm 0.00 in0.0 mm 0.00 in0.0 mm
01:05 PM 5.4°F-14.8°C -2.8°F-19.3°C 68% 4.0 mph W6.4 kmh W -- 30.76 in1041.7 mb 0.00 in0.0 mm 0.00 in0.0 mm 0.00 in0.0 mm
01:10 PM 5.4°F-14.8°C -3.5°F-19.7°C 66% 9.0 mph WNW14.5 kmh WNW -- 30.75 in1041.3 mb 0.00 in0.0 mm 0.00 in0.0 mm 0.00 in0.0 mm
01:15 PM 5.4°F-14.8°C -3.8°F-19.9°C 65% 8.0 mph WNW12.9 kmh WNW -- 30.75 in1041.3 mb 0.00 in0.0 mm 0.00 in0.0 mm 0.00 in0.0 mm
01:20 PM 5.8°F-14.6°C -3.4°F-19.7°C 65% 7.0 mph WNW11.3 kmh WNW 10.0 mph16.1 kmh 30.75 in1041.3 mb 0.00 in0.0 mm 0.00 in0.0 mm 0.00 in0.0 mm
01:25 PM 5.9°F-14.5°C -3.3°F-19.6°C 65% 5.0 mph NW8.0 kmh NW 10.0 mph16.1 kmh 30.75 in1041.3 mb 0.00 in0.0 mm 0.00 in0.0 mm 0.00 in0.0 mm
01:30 PM 6.1°F-14.4°C -3.4°F-19.7°C 64% 4.0 mph NW6.4 kmh NW -- 30.75 in1041.3 mb 0.00 in0.0 mm 0.00 in0.0 mm 0.00 in0.0 mm
01:35 PM 6.3°F-14.3°C -3.2°F-19.6°C 64% 9.0 mph NW14.5 kmh NW -- 30.75 in1041.3 mb 0.00 in0.0 mm 0.00 in0.0 mm 0.00 in0.0 mm
01:40 PM 5.8°F-14.6°C -3.7°F-19.8°C 64% 6.0 mph NW9.7 kmh NW -- 30.75 in1041.3 mb 0.00 in0.0 mm 0.00 in0.0 mm 0.00 in0.0 mm
01:45 PM 6.2°F-14.3°C -2.7°F-19.3°C 66% 8.0 mph W12.9 kmh W -- 30.75 in1041.3 mb 0.00 in0.0 mm 0.00 in0.0 mm 0.00 in0.0 mm
01:50 PM 6.4°F-14.2°C -3.5°F-19.7°C 63% 7.0 mph NW11.3 kmh NW -- 30.75 in1041.3 mb 0.00 in0.0 mm 0.00 in0.0 mm 0.00 in0.0 mm
01:55 PM 6.5°F-14.2°C -3.7°F-19.8°C 62% 6.0 mph NW9.7 kmh NW -- 30.75 in1041.3 mb 0.00 in0.0 mm 0.00 in0.0 mm 0.00 in0.0 mm
02:00 PM 6.7°F-14.1°C -3.2°F-19.6°C 63% 10.0 mph NW16.1 kmh NW -- 30.75 in1041.3 mb 0.00 in0.0 mm 0.00 in0.0 mm 0.00 in0.0 mm
02:05 PM 6.8°F-14.0°C -3.4°F-19.7°C 62% 3.0 mph WSW4.8 kmh WSW -- 30.74 in1041.0 mb 0.00 in0.0 mm 0.00 in0.0 mm 0.00 in0.0 mm
02:10 PM 6.4°F-14.2°C -3.8°F-19.9°C 62% 8.0 mph W12.9 kmh W 13.0 mph20.9 kmh 30.74 in1041.0 mb 0.00 in0.0 mm 0.00 in0.0 mm 0.00 in0.0 mm
02:15 PM 6.8°F-14.0°C -3.4°F-19.7°C 62% 5.0 mph NW8.0 kmh NW 13.0 mph20.9 kmh 30.74 in1041.0 mb 0.00 in0.0 mm 0.00 in0.0 mm 0.00 in0.0 mm
02:20 PM 6.8°F-14.0°C -3.4°F-19.7°C 62% 1.0 mph W1.6 kmh W -- 30.74 in1041.0 mb 0.00 in0.0 mm 0.00 in0.0 mm 0.00 in0.0 mm
02:25 PM 7.2°F-13.8°C -3.0°F-19.4°C 62% 6.0 mph NW9.7 kmh NW -- 30.74 in1041.0 mb 0.00 in0.0 mm 0.00 in0.0 mm 0.00 in0.0 mm
02:30 PM 7.1°F-13.8°C -3.5°F-19.7°C 61% 9.0 mph NW14.5 kmh NW -- 30.74 in1041.0 mb 0.00 in0.0 mm 0.00 in0.0 mm 0.00 in0.0 mm
02:35 PM 7.1°F-13.8°C -3.5°F-19.7°C 61% 5.0 mph NW8.0 kmh NW -- 30.74 in1041.0 mb 0.00 in0.0 mm 0.00 in0.0 mm 0.00 in0.0 mm
02:40 PM 7.4°F-13.7°C -3.2°F-19.6°C 61% 4.0 mph NW6.4 kmh NW -- 30.74 in1041.0 mb 0.00 in0.0 mm 0.00 in0.0 mm 0.00 in0.0 mm
02:45 PM 7.7°F-13.5°C -2.9°F-19.4°C 61% 9.0 mph W14.5 kmh W -- 30.74 in1041.0 mb 0.00 in0.0 mm 0.00 in0.0 mm 0.00 in0.0 mm
02:50 PM 7.6°F-13.6°C -3.3°F-19.6°C 60% 8.0 mph NW12.9 kmh NW -- 30.74 in1041.0 mb 0.00 in0.0 mm 0.00 in0.0 mm 0.00 in0.0 mm
02:55 PM 7.4°F-13.7°C -3.5°F-19.7°C 60% 4.0 mph W6.4 kmh W -- 30.74 in1041.0 mb 0.00 in0.0 mm 0.00 in0.0 mm 0.00 in0.0 mm
03:00 PM 7.5°F-13.6°C -3.4°F-19.7°C 60% 7.0 mph NW11.3 kmh NW 11.0 mph17.7 kmh 30.74 in1041.0 mb 0.00 in0.0 mm 0.00 in0.0 mm 0.00 in0.0 mm
03:05 PM 7.7°F-13.5°C -3.3°F-19.6°C 60% 6.0 mph WNW9.7 kmh WNW 11.0 mph17.7 kmh 30.74 in1041.0 mb 0.00 in0.0 mm 0.00 in0.0 mm 0.00 in0.0 mm
03:10 PM 7.6°F-13.6°C -3.3°F-19.6°C 60% 6.0 mph WSW9.7 kmh WSW -- 30.74 in1041.0 mb 0.00 in0.0 mm 0.00 in0.0 mm 0.00 in0.0 mm
03:15 PM 7.9°F-13.4°C -3.1°F-19.5°C 60% 7.0 mph NW11.3 kmh NW -- 30.74 in1041.0 mb 0.00 in0.0 mm 0.00 in0.0 mm 0.00 in0.0 mm
03:20 PM 8.1°F-13.3°C -2.9°F-19.4°C 60% 6.0 mph W9.7 kmh W -- 30.74 in1041.0 mb 0.00 in0.0 mm 0.00 in0.0 mm 0.00 in0.0 mm
03:25 PM 8.1°F-13.3°C -2.9°F-19.4°C 60% 6.0 mph W9.7 kmh W -- 30.74 in1041.0 mb 0.00 in0.0 mm 0.00 in0.0 mm 0.00 in0.0 mm
03:30 PM 8.1°F-13.3°C -3.2°F-19.6°C 59% 3.0 mph WNW4.8 kmh WNW -- 30.74 in1041.0 mb 0.00 in0.0 mm 0.00 in0.0 mm 0.00 in0.0 mm
03:35 PM 8.2°F-13.2°C -3.1°F-19.5°C 59% 3.0 mph W4.8 kmh W -- 30.75 in1041.3 mb 0.00 in0.0 mm 0.00 in0.0 mm 0.00 in0.0 mm
03:40 PM 8.2°F-13.2°C -3.1°F-19.5°C 59% 8.0 mph NW12.9 kmh NW -- 30.75 in1041.3 mb 0.00 in0.0 mm 0.00 in0.0 mm 0.00 in0.0 mm
03:45 PM 8.1°F-13.3°C -3.2°F-19.6°C 59% 3.0 mph W4.8 kmh W -- 30.75 in1041.3 mb 0.00 in0.0 mm 0.00 in0.0 mm 0.00 in0.0 mm
03:50 PM 8.3°F-13.2°C -2.7°F-19.3°C 60% 3.0 mph WSW4.8 kmh WSW 9.0 mph14.5 kmh 30.75 in1041.3 mb 0.00 in0.0 mm 0.00 in0.0 mm 0.00 in0.0 mm
03:55 PM 8.6°F-13.0°C -2.8°F-19.3°C 59% 4.0 mph W6.4 kmh W 9.0 mph14.5 kmh 30.75 in1041.3 mb 0.00 in0.0 mm 0.00 in0.0 mm 0.00 in0.0 mm
04:00 PM 8.4°F-13.1°C -3.3°F-19.6°C 58% 2.0 mph NW3.2 kmh NW -- 30.75 in1041.3 mb 0.00 in0.0 mm 0.00 in0.0 mm 0.00 in0.0 mm
04:05 PM 8.6°F-13.0°C -3.1°F-19.5°C 58% 5.0 mph WSW8.0 kmh WSW -- 30.75 in1041.3 mb 0.00 in0.0 mm 0.00 in0.0 mm 0.00 in0.0 mm
04:10 PM 8.5°F-13.1°C -3.2°F-19.6°C 58% 7.0 mph W11.3 kmh W -- 30.75 in1041.3 mb 0.00 in0.0 mm 0.00 in0.0 mm 0.00 in0.0 mm
04:15 PM 8.3°F-13.2°C -3.4°F-19.7°C 58% 7.0 mph WNW11.3 kmh WNW -- 30.75 in1041.3 mb 0.00 in0.0 mm 0.00 in0.0 mm 0.00 in0.0 mm
04:20 PM 8.2°F-13.2°C -3.5°F-19.7°C 58% 4.0 mph NW6.4 kmh NW -- 30.75 in1041.3 mb 0.00 in0.0 mm 0.00 in0.0 mm 0.00 in0.0 mm
04:25 PM 8.1°F-13.3°C -3.6°F-19.8°C 58% 4.0 mph W6.4 kmh W -- 30.75 in1041.3 mb 0.00 in0.0 mm 0.00 in0.0 mm 0.00 in0.0 mm
04:30 PM 8.1°F-13.3°C -3.9°F-19.9°C 57% 4.0 mph WNW6.4 kmh WNW -- 30.75 in1041.3 mb 0.00 in0.0 mm 0.00 in0.0 mm 0.00 in0.0 mm
04:35 PM 8.0°F-13.3°C -4.0°F-20.0°C 57% 3.0 mph W4.8 kmh W -- 30.75 in1041.3 mb 0.00 in0.0 mm 0.00 in0.0 mm 0.00 in0.0 mm
04:40 PM 8.1°F-13.3°C -3.6°F-19.8°C 58% 7.0 mph W11.3 kmh W 9.0 mph14.5 kmh 30.75 in1041.3 mb 0.00 in0.0 mm 0.00 in0.0 mm 0.00 in0.0 mm
04:45 PM 8.0°F-13.3°C -3.7°F-19.8°C 58% 2.0 mph W3.2 kmh W 9.0 mph14.5 kmh 30.75 in1041.3 mb 0.00 in0.0 mm 0.00 in0.0 mm 0.00 in0.0 mm
04:50 PM 8.1°F-13.3°C -3.6°F-19.8°C 58% 5.0 mph NW8.0 kmh NW -- 30.75 in1041.3 mb 0.00 in0.0 mm 0.00 in0.0 mm 0.00 in0.0 mm
04:55 PM 8.0°F-13.3°C -3.3°F-19.6°C 59% 7.0 mph W11.3 kmh W -- 30.75 in1041.3 mb 0.00 in0.0 mm 0.00 in0.0 mm 0.00 in0.0 mm
05:00 PM 7.9°F-13.4°C -3.8°F-19.9°C 58% 2.0 mph WNW3.2 kmh WNW -- 30.75 in1041.3 mb 0.00 in0.0 mm 0.00 in0.0 mm 0.00 in0.0 mm
05:05 PM 7.9°F-13.4°C -3.4°F-19.7°C 59% 6.0 mph WNW9.7 kmh WNW -- 30.75 in1041.3 mb 0.00 in0.0 mm 0.00 in0.0 mm 0.00 in0.0 mm
05:10 PM 7.8°F-13.4°C -3.5°F-19.7°C 59% 4.0 mph W6.4 kmh W -- 30.76 in1041.7 mb 0.00 in0.0 mm 0.00 in0.0 mm 0.00 in0.0 mm
05:15 PM 7.7°F-13.5°C -3.6°F-19.8°C 59% 2.0 mph W3.2 kmh W -- 30.75 in1041.3 mb 0.00 in0.0 mm 0.00 in0.0 mm 0.00 in0.0 mm
05:20 PM 7.7°F-13.5°C -3.3°F-19.6°C 60% 3.0 mph W4.8 kmh W -- 30.76 in1041.7 mb 0.00 in0.0 mm 0.00 in0.0 mm 0.00 in0.0 mm
05:25 PM 7.6°F-13.6°C -3.3°F-19.6°C 60% 6.0 mph NW9.7 kmh NW -- 30.76 in1041.7 mb 0.00 in0.0 mm 0.00 in0.0 mm 0.00 in0.0 mm
05:30 PM 7.5°F-13.6°C -3.8°F-19.9°C 59% 3.0 mph W4.8 kmh W 7.0 mph11.3 kmh 30.76 in1041.7 mb 0.00 in0.0 mm 0.00 in0.0 mm 0.00 in0.0 mm
05:35 PM 7.4°F-13.7°C -3.5°F-19.7°C 60% 2.0 mph W3.2 kmh W 7.0 mph11.3 kmh 30.76 in1041.7 mb 0.00 in0.0 mm 0.00 in0.0 mm 0.00 in0.0 mm
05:40 PM 7.2°F-13.8°C -3.4°F-19.7°C 61% 4.0 mph WNW6.4 kmh WNW -- 30.76 in1041.7 mb 0.00 in0.0 mm 0.00 in0.0 mm 0.00 in0.0 mm
05:45 PM 7.0°F-13.9°C -3.6°F-19.8°C 61% 5.0 mph W8.0 kmh W -- 30.76 in1041.7 mb 0.00 in0.0 mm 0.00 in0.0 mm 0.00 in0.0 mm
05:50 PM 6.9°F-13.9°C -3.7°F-19.8°C 61% 2.0 mph W3.2 kmh W -- 30.76 in1041.7 mb 0.00 in0.0 mm 0.00 in0.0 mm 0.00 in0.0 mm
05:55 PM 6.7°F-14.1°C -3.9°F-19.9°C 61% 3.0 mph WNW4.8 kmh WNW -- 30.76 in1041.7 mb 0.00 in0.0 mm 0.00 in0.0 mm 0.00 in0.0 mm
06:00 PM 6.5°F-14.2°C -4.0°F-20.0°C 61% 3.0 mph W4.8 kmh W -- 30.77 in1042.0 mb 0.00 in0.0 mm 0.00 in0.0 mm 0.00 in0.0 mm
06:05 PM 6.4°F-14.2°C -3.8°F-19.9°C 62% 2.0 mph WNW3.2 kmh WNW -- 30.76 in1041.7 mb 0.00 in0.0 mm 0.00 in0.0 mm 0.00 in0.0 mm
06:10 PM 6.2°F-14.3°C -3.7°F-19.8°C 63% Calm Calm -- 30.76 in1041.7 mb 0.00 in0.0 mm 0.00 in0.0 mm 0.00 in0.0 mm
06:15 PM 6.1°F-14.4°C -3.8°F-19.9°C 63% 1.0 mph WNW1.6 kmh WNW -- 30.76 in1041.7 mb 0.00 in0.0 mm 0.00 in0.0 mm 0.00 in0.0 mm
06:20 PM 5.9°F-14.5°C -3.9°F-19.9°C 63% Calm Calm 4.0 mph6.4 kmh 30.77 in1042.0 mb 0.00 in0.0 mm 0.00 in0.0 mm 0.00 in0.0 mm
06:25 PM 5.8°F-14.6°C -3.7°F-19.8°C 64% 1.0 mph WNW1.6 kmh WNW 4.0 mph6.4 kmh 30.77 in1042.0 mb 0.00 in0.0 mm 0.00 in0.0 mm 0.00 in0.0 mm
06:30 PM 5.6°F-14.7°C -3.6°F-19.8°C 65% 1.0 mph WNW1.6 kmh WNW -- 30.77 in1042.0 mb 0.00 in0.0 mm 0.00 in0.0 mm 0.00 in0.0 mm
06:35 PM 5.4°F-14.8°C -3.5°F-19.7°C 66% 1.0 mph WNW1.6 kmh WNW -- 30.77 in1042.0 mb 0.00 in0.0 mm 0.00 in0.0 mm 0.00 in0.0 mm
06:40 PM 5.2°F-14.9°C -3.3°F-19.6°C 67% 1.0 mph WNW1.6 kmh WNW -- 30.77 in1042.0 mb 0.00 in0.0 mm 0.00 in0.0 mm 0.00 in0.0 mm
06:45 PM 5.0°F-15.0°C -3.2°F-19.6°C 68% Calm Calm -- 30.77 in1042.0 mb 0.00 in0.0 mm 0.00 in0.0 mm 0.00 in0.0 mm
06:50 PM 4.8°F-15.1°C -3.1°F-19.5°C 69% Calm Calm -- 30.77 in1042.0 mb 0.00 in0.0 mm 0.00 in0.0 mm 0.00 in0.0 mm
06:55 PM 4.7°F-15.2°C -3.2°F-19.6°C 69% 1.0 mph WNW1.6 kmh WNW -- 30.77 in1042.0 mb 0.00 in0.0 mm 0.00 in0.0 mm 0.00 in0.0 mm
07:00 PM 4.6°F-15.2°C -3.3°F-19.6°C 69% Calm Calm -- 30.77 in1042.0 mb 0.00 in0.0 mm 0.00 in0.0 mm 0.00 in0.0 mm
07:05 PM 4.4°F-15.3°C -3.5°F-19.7°C 69% Calm Calm -- 30.77 in1042.0 mb 0.00 in0.0 mm 0.00 in0.0 mm 0.00 in0.0 mm
07:10 PM 4.3°F-15.4°C -3.3°F-19.6°C 70% 1.0 mph WNW1.6 kmh WNW 1.0 mph1.6 kmh 30.77 in1042.0 mb 0.00 in0.0 mm 0.00 in0.0 mm 0.00 in0.0 mm
07:15 PM 4.2°F-15.4°C -3.1°F-19.5°C 71% Calm Calm 1.0 mph1.6 kmh 30.77 in1042.0 mb 0.00 in0.0 mm 0.00 in0.0 mm 0.00 in0.0 mm
07:20 PM 4.0°F-15.6°C -3.3°F-19.6°C 71% Calm Calm -- 30.77 in1042.0 mb 0.00 in0.0 mm 0.00 in0.0 mm 0.00 in0.0 mm
07:25 PM 4.0°F-15.6°C -3.3°F-19.6°C 71% Calm Calm -- 30.77 in1042.0 mb 0.00 in0.0 mm 0.00 in0.0 mm 0.00 in0.0 mm
07:30 PM 3.9°F-15.6°C -3.4°F-19.7°C 71% Calm Calm -- 30.77 in1042.0 mb 0.00 in0.0 mm 0.00 in0.0 mm 0.00 in0.0 mm
07:35 PM 3.7°F-15.7°C -3.3°F-19.6°C 72% Calm Calm -- 30.77 in1042.0 mb 0.00 in0.0 mm 0.00 in0.0 mm 0.00 in0.0 mm
07:40 PM 3.6°F-15.8°C -3.4°F-19.7°C 72% Calm Calm -- 30.78 in1042.3 mb 0.00 in0.0 mm 0.00 in0.0 mm 0.00 in0.0 mm
07:45 PM 3.5°F-15.8°C -3.2°F-19.6°C 73% Calm Calm -- 30.78 in1042.3 mb 0.00 in0.0 mm 0.00 in0.0 mm 0.00 in0.0 mm
07:50 PM 3.5°F-15.8°C -3.2°F-19.6°C 73% Calm Calm -- 30.78 in1042.3 mb 0.00 in0.0 mm 0.00 in0.0 mm 0.00 in0.0 mm
07:55 PM 3.3°F-15.9°C -3.4°F-19.7°C 73% Calm Calm -- 30.78 in1042.3 mb 0.00 in0.0 mm 0.00 in0.0 mm 0.00 in0.0 mm
08:00 PM 3.2°F-16.0°C -3.5°F-19.7°C 73% Calm Calm -- 30.78 in1042.3 mb 0.00 in0.0 mm 0.00 in0.0 mm 0.00 in0.0 mm
08:05 PM 3.2°F-16.0°C -3.8°F-19.9°C 72% Calm Calm -- 30.78 in1042.3 mb 0.00 in0.0 mm 0.00 in0.0 mm 0.00 in0.0 mm
08:10 PM 3.2°F-16.0°C -3.5°F-19.7°C 73% Calm Calm -- 30.78 in1042.3 mb 0.00 in0.0 mm 0.00 in0.0 mm 0.00 in0.0 mm
08:15 PM 3.0°F-16.1°C -3.9°F-19.9°C 72% Calm Calm -- 30.78 in1042.3 mb 0.00 in0.0 mm 0.00 in0.0 mm 0.00 in0.0 mm
08:20 PM 3.1°F-16.1°C -3.9°F-19.9°C 72% Calm Calm -- 30.78 in1042.3 mb 0.00 in0.0 mm 0.00 in0.0 mm 0.00 in0.0 mm
08:25 PM 3.1°F-16.1°C -3.9°F-19.9°C 72% Calm Calm -- 30.78 in1042.3 mb 0.00 in0.0 mm 0.00 in0.0 mm 0.00 in0.0 mm
08:30 PM 3.1°F-16.1°C -3.9°F-19.9°C 72% Calm Calm -- 30.78 in1042.3 mb 0.00 in0.0 mm 0.00 in0.0 mm 0.00 in0.0 mm
08:35 PM 2.9°F-16.2°C -4.0°F-20.0°C 72% Calm Calm -- 30.78 in1042.3 mb 0.00 in0.0 mm 0.00 in0.0 mm 0.00 in0.0 mm
08:40 PM 2.8°F-16.2°C -4.1°F-20.1°C 72% Calm Calm -- 30.78 in1042.3 mb 0.00 in0.0 mm 0.00 in0.0 mm 0.00 in0.0 mm
08:45 PM 2.7°F-16.3°C -4.2°F-20.1°C 72% Calm Calm -- 30.78 in1042.3 mb 0.00 in0.0 mm 0.00 in0.0 mm 0.00 in0.0 mm
08:50 PM 2.6°F-16.3°C -4.0°F-20.0°C 73% Calm Calm -- 30.78 in1042.3 mb 0.00 in0.0 mm 0.00 in0.0 mm 0.00 in0.0 mm
08:55 PM 2.4°F-16.4°C -4.2°F-20.1°C 73% Calm Calm -- 30.78 in1042.3 mb 0.00 in0.0 mm 0.00 in0.0 mm 0.00 in0.0 mm
09:00 PM 2.4°F-16.4°C -4.2°F-20.1°C 73% Calm Calm -- 30.78 in1042.3 mb 0.00 in0.0 mm 0.00 in0.0 mm 0.00 in0.0 mm
09:05 PM 2.2°F-16.6°C -4.4°F-20.2°C 73% Calm Calm -- 30.78 in1042.3 mb 0.00 in0.0 mm 0.00 in0.0 mm 0.00 in0.0 mm
09:10 PM 2.1°F-16.6°C -1.9°F-18.8°C 83% Calm Calm -- 30.78 in1042.3 mb 0.00 in0.0 mm 0.00 in0.0 mm 0.00 in0.0 mm
09:15 PM 2.0°F-16.7°C -4.3°F-20.2°C 74% Calm Calm -- 30.78 in1042.3 mb 0.00 in0.0 mm 0.00 in0.0 mm 0.00 in0.0 mm
09:20 PM 1.9°F-16.7°C -4.4°F-20.2°C 74% Calm Calm -- 30.78 in1042.3 mb 0.00 in0.0 mm 0.00 in0.0 mm 0.00 in0.0 mm
09:25 PM 1.7°F-16.8°C -4.6°F-20.3°C 74% Calm Calm -- 30.78 in1042.3 mb 0.00 in0.0 mm 0.00 in0.0 mm 0.00 in0.0 mm
09:30 PM 1.5°F-16.9°C -4.8°F-20.4°C 74% Calm Calm -- 30.78 in1042.3 mb 0.00 in0.0 mm 0.00 in0.0 mm 0.00 in0.0 mm
09:35 PM 1.5°F-16.9°C -4.6°F-20.3°C 75% Calm Calm -- 30.78 in1042.3 mb 0.00 in0.0 mm 0.00 in0.0 mm 0.00 in0.0 mm
09:40 PM 1.5°F-16.9°C -4.3°F-20.2°C 76% Calm Calm -- 30.77 in1042.0 mb 0.00 in0.0 mm 0.00 in0.0 mm 0.00 in0.0 mm
09:45 PM 1.4°F-17.0°C -4.4°F-20.2°C 76% Calm Calm -- 30.77 in1042.0 mb 0.00 in0.0 mm 0.00 in0.0 mm 0.00 in0.0 mm
09:50 PM 1.3°F-17.1°C -4.5°F-20.3°C 76% Calm Calm -- 30.77 in1042.0 mb 0.00 in0.0 mm 0.00 in0.0 mm 0.00 in0.0 mm
09:55 PM 1.3°F-17.1°C -4.5°F-20.3°C 76% Calm Calm -- 30.77 in1042.0 mb 0.00 in0.0 mm 0.00 in0.0 mm 0.00 in0.0 mm
10:00 PM 1.5°F-16.9°C -4.0°F-20.0°C 77% Calm Calm -- 30.77 in1042.0 mb 0.00 in0.0 mm 0.00 in0.0 mm 0.00 in0.0 mm
10:05 PM 1.6°F-16.9°C -4.2°F-20.1°C 76% Calm Calm -- 30.77 in1042.0 mb 0.00 in0.0 mm 0.00 in0.0 mm 0.00 in0.0 mm
10:10 PM 1.5°F-16.9°C -4.6°F-20.3°C 75% Calm Calm -- 30.77 in1042.0 mb 0.00 in0.0 mm 0.00 in0.0 mm 0.00 in0.0 mm
10:15 PM 1.2°F-17.1°C -4.8°F-20.4°C 75% Calm Calm -- 30.77 in1042.0 mb 0.00 in0.0 mm 0.00 in0.0 mm 0.00 in0.0 mm
10:20 PM 1.0°F-17.2°C -4.8°F-20.4°C 76% Calm Calm -- 30.77 in1042.0 mb 0.00 in0.0 mm 0.00 in0.0 mm 0.00 in0.0 mm
10:25 PM 0.9°F-17.3°C -4.9°F-20.5°C 76% Calm Calm -- 30.77 in1042.0 mb 0.00 in0.0 mm 0.00 in0.0 mm 0.00 in0.0 mm
10:30 PM 0.8°F-17.3°C -5.0°F-20.6°C 76% Calm Calm 1.0 mph1.6 kmh 30.77 in1042.0 mb 0.00 in0.0 mm 0.00 in0.0 mm 0.00 in0.0 mm
10:35 PM 0.9°F-17.3°C -4.9°F-20.5°C 76% Calm Calm 1.0 mph1.6 kmh 30.77 in1042.0 mb 0.00 in0.0 mm 0.00 in0.0 mm 0.00 in0.0 mm
10:40 PM 0.9°F-17.3°C -4.9°F-20.5°C 76% Calm Calm -- 30.77 in1042.0 mb 0.00 in0.0 mm 0.00 in0.0 mm 0.00 in0.0 mm
10:45 PM 0.8°F-17.3°C -5.0°F-20.6°C 76% Calm Calm -- 30.77 in1042.0 mb 0.00 in0.0 mm 0.00 in0.0 mm 0.00 in0.0 mm
10:50 PM 0.9°F-17.3°C -4.9°F-20.5°C 76% Calm Calm -- 30.77 in1042.0 mb 0.00 in0.0 mm 0.00 in0.0 mm 0.00 in0.0 mm
10:55 PM 1.0°F-17.2°C -4.8°F-20.4°C 76% Calm Calm -- 30.77 in1042.0 mb 0.00 in0.0 mm 0.00 in0.0 mm 0.00 in0.0 mm
11:00 PM 1.1°F-17.2°C -4.7°F-20.4°C 76% Calm Calm -- 30.78 in1042.3 mb 0.00 in0.0 mm 0.00 in0.0 mm 0.00 in0.0 mm
11:05 PM 1.0°F-17.2°C -5.0°F-20.6°C 75% Calm Calm -- 30.77 in1042.0 mb 0.00 in0.0 mm 0.00 in0.0 mm 0.00 in0.0 mm
11:10 PM 0.9°F-17.3°C -5.1°F-20.6°C 75% Calm Calm -- 30.77 in1042.0 mb 0.00 in0.0 mm 0.00 in0.0 mm 0.00 in0.0 mm
11:15 PM 0.9°F-17.3°C -5.1°F-20.6°C 75% 1.0 mph WNW1.6 kmh WNW -- 30.78 in1042.3 mb 0.00 in0.0 mm 0.00 in0.0 mm 0.00 in0.0 mm
11:20 PM 1.0°F-17.2°C -5.0°F-20.6°C 75% Calm Calm 2.0 mph3.2 kmh 30.77 in1042.0 mb 0.00 in0.0 mm 0.00 in0.0 mm 0.00 in0.0 mm
11:25 PM 1.1°F-17.2°C -4.9°F-20.5°C 75% Calm Calm 2.0 mph3.2 kmh 30.77 in1042.0 mb 0.00 in0.0 mm 0.00 in0.0 mm 0.00 in0.0 mm
11:30 PM 1.1°F-17.2°C -5.2°F-20.7°C 74% Calm Calm -- 30.77 in1042.0 mb 0.00 in0.0 mm 0.00 in0.0 mm 0.00 in0.0 mm
11:35 PM 1.0°F-17.2°C -5.3°F-20.7°C 74% 1.0 mph WNW1.6 kmh WNW -- 30.77 in1042.0 mb 0.00 in0.0 mm 0.00 in0.0 mm 0.00 in0.0 mm
11:40 PM 1.0°F-17.2°C -5.3°F-20.7°C 74% Calm Calm -- 30.78 in1042.3 mb 0.00 in0.0 mm 0.00 in0.0 mm 0.00 in0.0 mm
11:45 PM 1.0°F-17.2°C -5.3°F-20.7°C 74% Calm Calm -- 30.78 in1042.3 mb 0.00 in0.0 mm 0.00 in0.0 mm 0.00 in0.0 mm
11:50 PM 0.9°F-17.3°C -5.4°F-20.8°C 74% Calm Calm -- 30.78 in1042.3 mb 0.00 in0.0 mm 0.00 in0.0 mm 0.00 in0.0 mm
11:55 PM 0.9°F-17.3°C -5.4°F-20.8°C 74% Calm Calm -- 30.78 in1042.3 mb 0.00 in0.0 mm 0.00 in0.0 mm 0.00 in0.0 mm